createdAt,value
2023-03-31T00:00:24.059Z,97411.17
2023-03-31T00:03:46.659Z,97414.69
2023-03-31T00:06:50.938Z,97416.42
2023-03-31T00:10:07.096Z,97414.52
2023-03-31T00:13:20.033Z,97412.48
2023-03-31T00:16:23.754Z,97407.37
2023-03-31T00:19:29.099Z,97404.45
2023-03-31T00:22:32.133Z,97405.05
2023-03-31T00:25:35.454Z,97401.82
2023-03-31T00:28:38.495Z,97395.00
2023-03-31T00:31:42.101Z,97398.42
2023-03-31T00:34:46.298Z,97400.08
2023-03-31T00:37:49.349Z,97402.06
2023-03-31T00:40:53.932Z,97399.48
2023-03-31T00:44:27.770Z,97399.55
2023-03-31T00:47:31.127Z,97398.39
2023-03-31T00:50:41.318Z,97394.95
2023-03-31T00:53:51.950Z,97399.27
2023-03-31T00:56:58.723Z,97396.62
2023-03-31T01:00:14.669Z,97399.74
2023-03-31T01:03:18.595Z,97398.41
2023-03-31T01:06:23.756Z,97395.52
2023-03-31T01:09:34.874Z,97391.36
2023-03-31T01:12:41.259Z,97389.48
2023-03-31T01:15:44.655Z,97391.36
2023-03-31T01:18:50.178Z,97384.94
2023-03-31T01:22:10.583Z,97383.98
2023-03-31T01:26:07.932Z,97374.05
2023-03-31T01:29:20.141Z,97371.81
2023-03-31T01:32:44.232Z,97375.55
2023-03-31T01:36:21.639Z,97375.35
2023-03-31T01:39:46.210Z,97374.04
2023-03-31T01:43:14.985Z,97372.48
2023-03-31T01:46:29.115Z,97374.41
2023-03-31T01:49:52.197Z,97377.40
2023-03-31T01:53:11.280Z,97380.88
2023-03-31T01:56:21.622Z,97379.85
2023-03-31T01:59:38.019Z,97376.01
2023-03-31T02:02:41.197Z,97376.23
2023-03-31T02:06:11.142Z,97378.35
2023-03-31T02:09:19.687Z,97376.80
2023-03-31T02:12:27.746Z,97373.52
2023-03-31T02:15:36.506Z,97376.23
2023-03-31T02:18:41.852Z,97377.27
2023-03-31T02:21:50.103Z,97372.30
2023-03-31T02:24:54.912Z,97372.45
2023-03-31T02:28:07.809Z,97372.94
2023-03-31T02:31:36.737Z,97371.13
2023-03-31T02:34:43.003Z,97368.71
2023-03-31T02:37:46.803Z,97365.42
2023-03-31T02:40:50.088Z,97364.08
2023-03-31T02:43:53.299Z,97366.41
2023-03-31T02:46:58.010Z,97365.57
2023-03-31T02:50:03.570Z,97361.20
2023-03-31T02:53:59.820Z,97358.14
2023-03-31T02:57:15.496Z,97359.46
2023-03-31T03:00:40.640Z,97359.79
2023-03-31T03:04:11.128Z,97354.78
2023-03-31T03:07:25.016Z,97361.55
2023-03-31T03:10:41.635Z,97353.73
2023-03-31T03:13:52.874Z,97358.65
2023-03-31T03:17:12.007Z,97359.69
2023-03-31T03:20:16.313Z,97357.02
2023-03-31T03:23:19.466Z,97353.43
2023-03-31T03:26:24.482Z,97351.00
2023-03-31T03:29:28.761Z,97347.48
2023-03-31T03:32:33.820Z,97345.82
2023-03-31T03:35:37.062Z,97347.80
2023-03-31T03:38:40.245Z,97343.41
2023-03-31T03:41:43.302Z,97343.17
2023-03-31T03:44:46.379Z,97341.84
2023-03-31T03:47:49.523Z,97332.44
2023-03-31T03:50:54.286Z,97329.86
2023-03-31T03:53:57.504Z,97328.61
2023-03-31T03:57:00.765Z,97331.52
2023-03-31T04:00:10.067Z,97331.84
2023-03-31T04:03:15.270Z,97327.70
2023-03-31T04:06:18.605Z,97328.20
2023-03-31T04:09:21.741Z,97328.90
2023-03-31T04:12:24.820Z,97324.82
2023-03-31T04:15:27.891Z,97321.66
2023-03-31T04:18:31.035Z,97316.51
2023-03-31T04:21:37.305Z,97310.62
2023-03-31T04:24:40.449Z,97308.92
2023-03-31T04:27:55.747Z,97311.77
2023-03-31T04:30:58.971Z,97309.52
2023-03-31T04:34:06.717Z,97304.58
2023-03-31T04:37:10.721Z,97301.88
2023-03-31T04:40:13.967Z,97299.52
2023-03-31T04:43:19.172Z,97298.77
2023-03-31T04:46:22.697Z,97304.42
2023-03-31T04:49:36.127Z,97300.35
2023-03-31T04:52:42.356Z,97297.79
2023-03-31T04:55:45.545Z,97295.23
2023-03-31T04:58:48.676Z,97298.48
2023-03-31T05:01:51.776Z,97294.11
2023-03-31T05:04:54.810Z,97289.59
2023-03-31T05:07:57.912Z,97281.91
2023-03-31T05:11:04.565Z,97280.84
2023-03-31T05:14:07.692Z,97277.11
2023-03-31T05:17:11.441Z,97271.16
2023-03-31T05:20:14.754Z,97267.29
2023-03-31T05:23:17.849Z,97270.39
2023-03-31T05:26:23.068Z,97270.58
2023-03-31T05:29:26.401Z,97270.70
2023-03-31T05:32:29.686Z,97264.90
2023-03-31T05:35:32.855Z,97265.80
2023-03-31T05:38:36.585Z,97265.45
2023-03-31T05:41:40.575Z,97263.61
2023-03-31T05:44:43.613Z,97265.22
2023-03-31T05:47:47.484Z,97257.41
2023-03-31T05:50:50.961Z,97255.85
2023-03-31T05:53:54.225Z,97257.67
2023-03-31T05:56:57.355Z,97259.48
2023-03-31T06:00:00.708Z,97255.08
2023-03-31T06:03:03.950Z,97255.95
2023-03-31T06:06:08.705Z,97252.41
2023-03-31T06:09:15.110Z,97247.15
2023-03-31T06:12:18.268Z,97246.85
2023-03-31T06:15:21.460Z,97250.00
2023-03-31T06:18:28.701Z,97250.40
2023-03-31T06:21:31.916Z,97257.81
2023-03-31T06:24:35.075Z,97257.05
2023-03-31T06:27:38.204Z,97252.45
2023-03-31T06:30:42.046Z,97249.41
2023-03-31T06:33:46.599Z,97246.55
2023-03-31T06:36:49.843Z,97239.00
2023-03-31T06:39:53.571Z,97239.56
2023-03-31T06:42:56.828Z,97235.68
2023-03-31T06:46:00.222Z,97232.09
2023-03-31T06:49:03.441Z,97225.91
2023-03-31T06:52:06.783Z,97227.05
2023-03-31T06:55:10.710Z,97226.05
2023-03-31T06:58:14.111Z,97225.05
2023-03-31T07:01:17.357Z,97228.54
2023-03-31T07:04:20.838Z,97224.64
2023-03-31T07:07:24.059Z,97225.27
2023-03-31T07:10:29.851Z,97224.55
2023-03-31T07:13:33.032Z,97222.89
2023-03-31T07:16:39.025Z,97223.65
2023-03-31T07:19:42.432Z,97225.39
2023-03-31T07:22:47.640Z,97226.69
2023-03-31T07:25:50.964Z,97222.15
2023-03-31T07:28:56.762Z,97218.92
2023-03-31T07:32:00.001Z,97211.92
2023-03-31T07:35:03.511Z,97213.05
2023-03-31T07:38:11.159Z,97209.36
2023-03-31T07:41:16.839Z,97209.64
2023-03-31T07:44:21.869Z,97203.42
2023-03-31T07:47:25.894Z,97203.01
2023-03-31T07:50:29.166Z,97209.05
2023-03-31T07:53:34.458Z,97204.77
2023-03-31T07:56:37.810Z,97197.67
2023-03-31T07:59:41.265Z,97205.14
2023-03-31T08:02:44.829Z,97204.17
2023-03-31T08:05:52.516Z,97199.23
2023-03-31T08:08:56.488Z,97190.85
2023-03-31T08:11:59.646Z,97188.20
2023-03-31T08:15:03.207Z,97185.17
2023-03-31T08:18:07.003Z,97175.42
2023-03-31T08:21:10.431Z,97175.63
2023-03-31T08:24:13.686Z,97163.10
2023-03-31T08:27:17.144Z,97153.48
2023-03-31T08:30:20.674Z,97143.82
2023-03-31T08:33:24.001Z,97149.96
2023-03-31T08:36:27.649Z,97144.33
2023-03-31T08:39:31.245Z,97142.71
2023-03-31T08:42:47.642Z,97134.83
2023-03-31T08:45:51.063Z,97130.29
2023-03-31T08:48:59.615Z,97119.40
2023-03-31T08:52:08.731Z,97112.39
2023-03-31T08:55:26.010Z,97106.38
2023-03-31T08:58:51.583Z,97092.05
2023-03-31T09:02:01.227Z,97094.94
2023-03-31T09:05:19.350Z,97095.36
2023-03-31T09:08:43.127Z,97094.83
2023-03-31T09:11:55.789Z,97085.08
2023-03-31T09:15:09.083Z,97078.51
2023-03-31T09:18:25.452Z,97078.56
2023-03-31T09:21:34.363Z,97077.15
2023-03-31T09:24:52.713Z,97064.78
2023-03-31T09:28:00.053Z,97063.05
2023-03-31T09:31:15.063Z,97056.41
2023-03-31T09:34:31.891Z,97049.82
2023-03-31T09:37:35.159Z,97047.80
2023-03-31T09:40:38.542Z,97043.82
2023-03-31T09:43:43.475Z,97044.88
2023-03-31T09:46:46.933Z,97045.50
2023-03-31T09:49:54.140Z,97041.22
2023-03-31T09:53:06.142Z,97030.99
2023-03-31T09:56:11.661Z,97027.27
2023-03-31T09:59:19.018Z,97028.67
2023-03-31T10:02:34.713Z,97023.05
2023-03-31T10:05:41.576Z,97011.84
2023-03-31T10:08:59.687Z,97006.71
2023-03-31T10:12:07.307Z,97016.39
2023-03-31T10:15:42.907Z,97019.05
2023-03-31T10:18:46.125Z,97013.27
2023-03-31T10:21:57.367Z,97011.64
2023-03-31T10:25:17.045Z,97010.20
2023-03-31T10:28:21.910Z,97010.30
2023-03-31T10:31:36.101Z,97000.39
2023-03-31T10:34:42.913Z,97004.23
2023-03-31T10:37:48.688Z,97003.75
2023-03-31T10:40:55.287Z,96999.59
2023-03-31T10:44:00.831Z,96995.70
2023-03-31T10:47:22.002Z,96992.20
2023-03-31T10:50:31.294Z,96990.05
2023-03-31T10:54:03.481Z,96983.64
2023-03-31T10:57:07.514Z,96979.95
2023-03-31T11:00:49.608Z,96980.68
2023-03-31T11:04:07.831Z,96975.46
2023-03-31T11:07:14.071Z,96965.52
2023-03-31T11:10:41.638Z,96965.46
2023-03-31T11:13:54.152Z,96960.70
2023-03-31T11:17:19.949Z,96949.40
2023-03-31T11:20:52.088Z,96946.63
2023-03-31T11:24:15.258Z,96937.07
2023-03-31T11:27:30.324Z,96932.95
2023-03-31T11:30:58.306Z,96932.23
2023-03-31T11:34:31.730Z,96919.55
2023-03-31T11:37:53.548Z,96922.00
2023-03-31T11:41:22.906Z,96918.59
2023-03-31T11:44:31.080Z,96910.19
2023-03-31T11:47:38.002Z,96909.92
2023-03-31T11:50:47.028Z,96906.80
2023-03-31T11:53:53.109Z,96913.65
2023-03-31T11:56:56.854Z,96901.93
2023-03-31T12:00:25.382Z,96897.89
2023-03-31T12:03:46.856Z,96893.66
2023-03-31T12:06:52.396Z,96881.05
2023-03-31T12:10:07.754Z,96878.34
2023-03-31T12:13:41.659Z,96866.03
2023-03-31T12:17:12.536Z,96864.91
2023-03-31T12:20:33.332Z,96854.64
2023-03-31T12:23:41.881Z,96846.68
2023-03-31T12:27:02.884Z,96842.34
2023-03-31T12:30:14.991Z,96834.52
2023-03-31T12:33:24.653Z,96829.74
2023-03-31T12:36:45.608Z,96829.10
2023-03-31T12:40:26.920Z,96831.08
2023-03-31T12:43:44.845Z,96826.17
2023-03-31T12:47:04.133Z,96816.09
2023-03-31T12:50:12.967Z,96808.44
2023-03-31T12:53:37.225Z,96806.16
2023-03-31T12:57:04.625Z,96796.04
2023-03-31T13:00:13.629Z,96788.05
2023-03-31T13:03:39.099Z,96780.55
2023-03-31T13:06:43.584Z,96787.08
2023-03-31T13:09:53.054Z,96790.23
2023-03-31T13:13:22.529Z,96777.38
2023-03-31T13:16:28.443Z,96771.44
2023-03-31T13:19:35.867Z,96771.72
2023-03-31T13:22:45.952Z,96770.23
2023-03-31T13:25:52.747Z,96770.54
2023-03-31T13:29:09.582Z,96766.41
2023-03-31T13:32:24.732Z,96761.22
2023-03-31T13:35:31.008Z,96755.93
2023-03-31T13:39:07.618Z,96743.84
2023-03-31T13:42:37.662Z,96736.83
2023-03-31T13:45:56.215Z,96739.97
2023-03-31T13:49:35.388Z,96733.90
2023-03-31T13:53:06.154Z,96732.52
2023-03-31T13:56:27.096Z,96722.71
2023-03-31T14:00:12.690Z,96726.45
2023-03-31T14:03:44.262Z,96717.98
2023-03-31T14:06:53.836Z,96715.02
2023-03-31T14:09:59.649Z,96712.81
2023-03-31T14:13:12.288Z,96709.98
2023-03-31T14:16:18.263Z,96704.73
2023-03-31T14:19:56.710Z,96700.48
2023-03-31T14:23:18.325Z,96702.79
2023-03-31T14:26:46.838Z,96701.00
2023-03-31T14:30:23.530Z,96701.48
2023-03-31T14:33:35.420Z,96694.55
2023-03-31T14:37:00.343Z,96695.35
2023-03-31T14:40:05.070Z,96694.73
2023-03-31T14:43:18.831Z,96690.15
2023-03-31T14:46:22.783Z,96686.42
2023-03-31T14:49:28.979Z,96674.41
2023-03-31T14:52:34.088Z,96666.84
2023-03-31T14:55:54.354Z,96662.23
2023-03-31T14:59:02.540Z,96654.96
2023-03-31T15:02:06.631Z,96649.38
2023-03-31T15:05:21.482Z,96644.75
2023-03-31T15:08:25.953Z,96637.58
2023-03-31T15:11:31.383Z,96637.11
2023-03-31T15:14:46.833Z,96632.44
2023-03-31T15:17:51.545Z,96623.89
2023-03-31T15:20:54.846Z,96614.80
2023-03-31T15:23:58.704Z,96607.95
2023-03-31T15:27:08.581Z,96603.92
2023-03-31T15:30:22.115Z,96591.49
2023-03-31T15:33:36.687Z,96585.71
2023-03-31T15:36:39.784Z,96582.07
2023-03-31T15:39:48.442Z,96571.36
2023-03-31T15:43:24.295Z,96570.60
2023-03-31T15:46:38.692Z,96566.84
2023-03-31T15:49:53.495Z,96564.28
2023-03-31T15:52:58.497Z,96557.74
2023-03-31T15:56:01.895Z,96556.23
2023-03-31T15:59:06.973Z,96553.33
2023-03-31T16:02:17.718Z,96548.80
2023-03-31T16:05:54.407Z,96553.16
2023-03-31T16:09:06.798Z,96547.64
2023-03-31T16:12:30.718Z,96552.02
2023-03-31T16:15:50.175Z,96542.44
2023-03-31T16:19:06.357Z,96535.93
2023-03-31T16:22:16.248Z,96536.34
2023-03-31T16:25:23.155Z,96539.70
2023-03-31T16:28:30.197Z,96535.81
2023-03-31T16:31:39.646Z,96533.56
2023-03-31T16:35:00.638Z,96533.04
2023-03-31T16:38:08.196Z,96534.19
2023-03-31T16:41:12.384Z,96525.16
2023-03-31T16:44:15.554Z,96518.80
2023-03-31T16:47:31.622Z,96526.48
2023-03-31T16:50:38.400Z,96520.32
2023-03-31T16:53:41.941Z,96528.95
2023-03-31T16:56:50.172Z,96526.13
2023-03-31T16:59:53.418Z,96543.17
2023-03-31T17:02:57.978Z,96552.55
2023-03-31T17:06:06.588Z,96562.30
2023-03-31T17:09:09.979Z,96558.67
2023-03-31T17:12:13.263Z,96539.98
2023-03-31T17:15:16.937Z,96515.73
2023-03-31T17:18:20.141Z,96500.13
2023-03-31T17:21:23.769Z,96495.55
2023-03-31T17:24:27.488Z,96520.99
2023-03-31T17:27:30.981Z,96529.29
2023-03-31T17:30:36.511Z,96509.05
2023-03-31T17:33:40.281Z,96512.64
2023-03-31T17:36:44.545Z,96507.13
2023-03-31T17:39:48.241Z,96486.30
2023-03-31T17:42:51.553Z,96489.02
2023-03-31T17:46:02.226Z,96481.56
2023-03-31T17:49:05.813Z,96484.77
2023-03-31T17:52:09.073Z,96492.79
2023-03-31T17:55:12.683Z,96487.00
2023-03-31T17:58:16.158Z,96478.48
2023-03-31T18:01:19.387Z,96482.20
2023-03-31T18:04:22.772Z,96476.55
2023-03-31T18:07:25.953Z,96476.58
2023-03-31T18:10:29.531Z,96475.92
2023-03-31T18:13:34.903Z,96478.33
2023-03-31T18:16:38.154Z,96472.40
2023-03-31T18:19:43.733Z,96467.95
2023-03-31T18:22:47.791Z,96472.27
2023-03-31T18:25:51.789Z,96470.55
2023-03-31T18:28:55.534Z,96464.72
2023-03-31T18:31:58.902Z,96458.53
2023-03-31T18:35:02.565Z,96461.98
2023-03-31T18:38:05.862Z,96463.10
2023-03-31T18:41:10.003Z,96462.13
2023-03-31T18:44:16.036Z,96465.52
2023-03-31T18:47:20.993Z,96460.80
2023-03-31T18:50:24.162Z,96459.98
2023-03-31T18:53:27.970Z,96461.63
2023-03-31T18:56:31.589Z,96456.30
2023-03-31T18:59:34.715Z,96449.61
2023-03-31T19:02:37.845Z,96448.52
2023-03-31T19:05:41.195Z,96447.40
2023-03-31T19:08:44.253Z,96447.14
2023-03-31T19:11:47.524Z,96446.52
2023-03-31T19:14:50.668Z,96438.26
2023-03-31T19:17:54.161Z,96436.47
2023-03-31T19:20:59.427Z,96431.02
2023-03-31T19:24:02.835Z,96430.53
2023-03-31T19:27:06.521Z,96428.69
2023-03-31T19:30:18.189Z,96426.54
2023-03-31T19:33:21.341Z,96429.68
2023-03-31T19:36:24.478Z,96426.40
2023-03-31T19:39:28.258Z,96422.82
2023-03-31T19:42:33.396Z,96413.27
2023-03-31T19:45:37.478Z,96408.46
2023-03-31T19:48:41.234Z,96409.67
2023-03-31T19:51:44.363Z,96408.70
2023-03-31T19:54:48.048Z,96398.17
2023-03-31T19:57:51.316Z,96403.83
2023-03-31T20:00:56.049Z,96406.81
2023-03-31T20:03:59.274Z,96411.61
2023-03-31T20:07:03.354Z,96412.52
2023-03-31T20:10:07.810Z,96415.19
2023-03-31T20:13:11.394Z,96417.88
2023-03-31T20:16:20.331Z,96422.17
2023-03-31T20:19:23.508Z,96424.45
2023-03-31T20:22:26.731Z,96422.77
2023-03-31T20:25:30.139Z,96420.02
2023-03-31T20:28:34.468Z,96425.95
2023-03-31T20:31:40.068Z,96430.11
2023-03-31T20:34:43.260Z,96435.08
2023-03-31T20:37:46.589Z,96435.88
2023-03-31T20:40:49.784Z,96433.85
2023-03-31T20:43:53.853Z,96429.67
2023-03-31T20:46:59.140Z,96427.66
2023-03-31T20:50:03.007Z,96432.95
2023-03-31T20:53:06.124Z,96443.99
2023-03-31T20:56:17.799Z,96450.76
2023-03-31T20:59:21.700Z,96454.78
2023-03-31T21:02:25.546Z,96453.48
2023-03-31T21:05:29.666Z,96451.94
2023-03-31T21:08:33.393Z,96450.96
2023-03-31T21:11:36.541Z,96451.64
2023-03-31T21:14:39.897Z,96455.79
2023-03-31T21:17:43.151Z,96461.83
2023-03-31T21:21:11.216Z,96462.44
2023-03-31T21:24:14.377Z,96452.16
2023-03-31T21:27:17.725Z,96446.08
2023-03-31T21:30:21.464Z,96452.75
2023-03-31T21:33:25.331Z,96458.89
2023-03-31T21:36:29.267Z,96455.95
2023-03-31T21:39:32.290Z,96449.38
2023-03-31T21:42:36.337Z,96449.35
2023-03-31T21:45:39.869Z,96448.58
2023-03-31T21:48:45.074Z,96451.59
2023-03-31T21:51:49.046Z,96456.52
2023-03-31T21:54:52.545Z,96463.38
2023-03-31T21:57:55.648Z,96462.11
2023-03-31T22:01:04.089Z,96464.08
2023-03-31T22:04:08.552Z,96465.05
2023-03-31T22:07:14.422Z,96461.77
2023-03-31T22:10:17.552Z,96469.44
2023-03-31T22:13:22.308Z,96471.36
2023-03-31T22:16:25.616Z,96470.89
2023-03-31T22:19:28.813Z,96469.98
2023-03-31T22:22:31.997Z,96474.13
2023-03-31T22:25:35.460Z,96473.58
2023-03-31T22:28:38.642Z,96474.66
2023-03-31T22:31:42.033Z,96477.05
2023-03-31T22:34:46.040Z,96479.94
2023-03-31T22:37:49.140Z,96485.67
2023-03-31T22:40:52.188Z,96483.22
2023-03-31T22:43:55.502Z,96482.46
2023-03-31T22:46:58.614Z,96482.81
2023-03-31T22:50:01.790Z,96483.73
2023-03-31T22:53:05.042Z,96473.69
2023-03-31T22:56:11.895Z,96469.11
2023-03-31T22:59:15.953Z,96478.44
2023-03-31T23:02:19.134Z,96485.33
2023-03-31T23:05:24.292Z,96484.98
2023-03-31T23:08:27.464Z,96476.98
2023-03-31T23:11:30.612Z,96480.00
2023-03-31T23:14:33.679Z,96480.23
2023-03-31T23:17:37.055Z,96486.67
2023-03-31T23:20:41.006Z,96475.30
2023-03-31T23:23:44.035Z,96474.85
2023-03-31T23:26:47.390Z,96473.86
2023-03-31T23:29:50.579Z,96463.20
2023-03-31T23:32:55.197Z,96454.63
2023-03-31T23:36:00.990Z,96450.80
2023-03-31T23:39:06.636Z,96448.05
2023-03-31T23:42:12.590Z,96450.86
2023-03-31T23:45:15.893Z,96450.52
2023-03-31T23:48:19.345Z,96451.03
2023-03-31T23:51:22.573Z,96444.88
2023-03-31T23:54:25.916Z,96447.60
2023-03-31T23:57:29.189Z,96440.67
